sensor_id;sensor_type;location;lat;lon;timestamp;pressure;altitude;pressure_sealevel;temperature;humidity
76434;BME280;65265;53.200;6.080;2023-06-22T00:00:14;102026.19;;;17.03;100.00
76434;BME280;65265;53.200;6.080;2023-06-22T00:05:05;102021.06;;;17.05;100.00
76434;BME280;65265;53.200;6.080;2023-06-22T00:09:57;102014.19;;;17.05;100.00
76434;BME280;65265;53.200;6.080;2023-06-22T00:14:50;102021.06;;;17.05;100.00
76434;BME280;65265;53.200;6.080;2023-06-22T00:19:41;102027.13;;;17.05;100.00
76434;BME280;65265;53.200;6.080;2023-06-22T00:24:33;102026.03;;;16.99;100.00
76434;BME280;65265;53.200;6.080;2023-06-22T00:29:24;102033.56;;;16.93;100.00
76434;BME280;65265;53.200;6.080;2023-06-22T00:34:17;102038.75;;;16.93;100.00
76434;BME280;65265;53.200;6.080;2023-06-22T00:39:08;102041.22;;;16.89;100.00
76434;BME280;65265;53.200;6.080;2023-06-22T00:44:00;102053.84;;;16.81;100.00
76434;BME280;65265;53.200;6.080;2023-06-22T00:48:52;102070.75;;;16.72;100.00
76434;BME280;65265;53.200;6.080;2023-06-22T00:53:49;102072.16;;;16.62;100.00
76434;BME280;65265;53.200;6.080;2023-06-22T00:58:41;102063.16;;;16.51;100.00
76434;BME280;65265;53.200;6.080;2023-06-22T01:03:33;102066.34;;;16.44;100.00
76434;BME280;65265;53.200;6.080;2023-06-22T01:08:29;102071.56;;;16.46;100.00
76434;BME280;65265;53.200;6.080;2023-06-22T01:13:28;102074.81;;;16.40;100.00
76434;BME280;65265;53.200;6.080;2023-06-22T01:18:22;102055.63;;;16.35;100.00
76434;BME280;65265;53.200;6.080;2023-06-22T01:23:23;102057.34;;;16.35;100.00
76434;BME280;65265;53.200;6.080;2023-06-22T01:28:32;102042.63;;;16.32;100.00
76434;BME280;65265;53.200;6.080;2023-06-22T01:33:26;102044.28;;;16.30;100.00
76434;BME280;65265;53.200;6.080;2023-06-22T01:38:18;102026.25;;;16.32;100.00
76434;BME280;65265;53.200;6.080;2023-06-22T01:43:09;102034.06;;;16.33;100.00
76434;BME280;65265;53.200;6.080;2023-06-22T01:48:03;102034.13;;;16.35;100.00
76434;BME280;65265;53.200;6.080;2023-06-22T01:52:55;102024.63;;;16.34;100.00
76434;BME280;65265;53.200;6.080;2023-06-22T01:57:47;102027.97;;;16.31;100.00
76434;BME280;65265;53.200;6.080;2023-06-22T02:02:43;102021.03;;;16.30;100.00
76434;BME280;65265;53.200;6.080;2023-06-22T02:07:46;102031.41;;;16.32;100.00
76434;BME280;65265;53.200;6.080;2023-06-22T02:12:38;102033.81;;;16.27;100.00
76434;BME280;65265;53.200;6.080;2023-06-22T02:17:31;102023.50;;;16.27;100.00
76434;BME280;65265;53.200;6.080;2023-06-22T02:22:23;102007.97;;;16.26;100.00
76434;BME280;65265;53.200;6.080;2023-06-22T02:27:16;102018.97;;;16.20;100.00
76434;BME280;65265;53.200;6.080;2023-06-22T02:32:08;102001.63;;;16.16;100.00
76434;BME280;65265;53.200;6.080;2023-06-22T02:37:00;102010.97;;;16.14;100.00
76434;BME280;65265;53.200;6.080;2023-06-22T02:41:53;102015.06;;;16.08;100.00
76434;BME280;65265;53.200;6.080;2023-06-22T02:46:47;102016.63;;;16.04;100.00
76434;BME280;65265;53.200;6.080;2023-06-22T02:51:42;102022.63;;;16.03;100.00
76434;BME280;65265;53.200;6.080;2023-06-22T02:56:34;102022.06;;;15.88;100.00
76434;BME280;65265;53.200;6.080;2023-06-22T03:01:26;102025.97;;;15.77;100.00
76434;BME280;65265;53.200;6.080;2023-06-22T03:06:21;102029.00;;;15.67;100.00
76434;BME280;65265;53.200;6.080;2023-06-22T03:11:13;102032.16;;;15.60;100.00
76434;BME280;65265;53.200;6.080;2023-06-22T03:16:05;102023.31;;;15.54;100.00
76434;BME280;65265;53.200;6.080;2023-06-22T03:20:57;102021.38;;;15.48;100.00
76434;BME280;65265;53.200;6.080;2023-06-22T03:25:50;102023.00;;;15.45;100.00
76434;BME280;65265;53.200;6.080;2023-06-22T03:30:41;102028.16;;;15.45;100.00
76434;BME280;65265;53.200;6.080;2023-06-22T03:35:33;102023.91;;;15.47;100.00
76434;BME280;65265;53.200;6.080;2023-06-22T03:40:24;102024.50;;;15.40;100.00
76434;BME280;65265;53.200;6.080;2023-06-22T03:45:17;102028.59;;;15.35;100.00
76434;BME280;65265;53.200;6.080;2023-06-22T03:50:09;102024.28;;;15.34;100.00
76434;BME280;65265;53.200;6.080;2023-06-22T03:55:01;102012.13;;;15.31;100.00
76434;BME280;65265;53.200;6.080;2023-06-22T03:59:56;102010.59;;;15.36;100.00
76434;BME280;65265;53.200;6.080;2023-06-22T04:04:49;102008.94;;;15.38;100.00
76434;BME280;65265;53.200;6.080;2023-06-22T04:09:40;102005.53;;;15.38;100.00
76434;BME280;65265;53.200;6.080;2023-06-22T04:14:32;102012.53;;;15.42;100.00
76434;BME280;65265;53.200;6.080;2023-06-22T04:19:23;102014.38;;;15.44;100.00
76434;BME280;65265;53.200;6.080;2023-06-22T04:24:16;102022.22;;;15.47;100.00
76434;BME280;65265;53.200;6.080;2023-06-22T04:29:08;102022.47;;;15.53;100.00
76434;BME280;65265;53.200;6.080;2023-06-22T04:33:59;102003.59;;;15.54;100.00
76434;BME280;65265;53.200;6.080;2023-06-22T04:38:56;102000.47;;;15.63;100.00
76434;BME280;65265;53.200;6.080;2023-06-22T04:43:49;102005.09;;;15.71;100.00
76434;BME280;65265;53.200;6.080;2023-06-22T04:48:44;102002.00;;;15.80;100.00
76434;BME280;65265;53.200;6.080;2023-06-22T04:53:35;101981.69;;;15.89;100.00
76434;BME280;65265;53.200;6.080;2023-06-22T04:58:27;101991.38;;;15.96;100.00
76434;BME280;65265;53.200;6.080;2023-06-22T05:03:20;102002.81;;;16.02;100.00
76434;BME280;65265;53.200;6.080;2023-06-22T05:08:11;102002.22;;;16.09;100.00
76434;BME280;65265;53.200;6.080;2023-06-22T05:13:03;101998.25;;;16.19;100.00
76434;BME280;65265;53.200;6.080;2023-06-22T05:17:54;102002.72;;;16.23;100.00
76434;BME280;65265;53.200;6.080;2023-06-22T05:22:47;102013.41;;;16.33;100.00
76434;BME280;65265;53.200;6.080;2023-06-22T05:27:39;102007.75;;;16.43;100.00
76434;BME280;65265;53.200;6.080;2023-06-22T05:32:30;102003.84;;;16.54;100.00
76434;BME280;65265;53.200;6.080;2023-06-22T05:37:22;102002.50;;;16.65;100.00
76434;BME280;65265;53.200;6.080;2023-06-22T05:42:15;101998.63;;;16.78;100.00
76434;BME280;65265;53.200;6.080;2023-06-22T05:47:06;101997.31;;;16.90;100.00
76434;BME280;65265;53.200;6.080;2023-06-22T05:51:58;102010.59;;;17.00;100.00
76434;BME280;65265;53.200;6.080;2023-06-22T05:56:50;102002.28;;;17.10;100.00
76434;BME280;65265;53.200;6.080;2023-06-22T06:01:43;102002.63;;;17.21;100.00
76434;BME280;65265;53.200;6.080;2023-06-22T06:06:35;102003.13;;;17.36;100.00
76434;BME280;65265;53.200;6.080;2023-06-22T06:11:27;102003.78;;;17.57;100.00
76434;BME280;65265;53.200;6.080;2023-06-22T06:16:18;101999.19;;;17.76;100.00
76434;BME280;65265;53.200;6.080;2023-06-22T06:21:11;102005.88;;;17.99;100.00
76434;BME280;65265;53.200;6.080;2023-06-22T06:26:03;102001.94;;;18.12;100.00
76434;BME280;65265;53.200;6.080;2023-06-22T06:30:57;102019.78;;;18.31;100.00
76434;BME280;65265;53.200;6.080;2023-06-22T06:35:49;102024.56;;;18.48;100.00
76434;BME280;65265;53.200;6.080;2023-06-22T06:40:42;102010.28;;;18.64;100.00
76434;BME280;65265;53.200;6.080;2023-06-22T06:45:35;102002.09;;;18.81;100.00
76434;BME280;65265;53.200;6.080;2023-06-22T06:50:27;102003.38;;;18.98;100.00
76434;BME280;65265;53.200;6.080;2023-06-22T06:55:18;102008.00;;;19.10;100.00
76434;BME280;65265;53.200;6.080;2023-06-22T07:00:13;102022.19;;;19.24;100.00
76434;BME280;65265;53.200;6.080;2023-06-22T07:05:05;102019.19;;;19.43;100.00
76434;BME280;65265;53.200;6.080;2023-06-22T07:09:57;102008.91;;;19.48;100.00
76434;BME280;65265;53.200;6.080;2023-06-22T07:14:49;102012.72;;;19.62;100.00
76434;BME280;65265;53.200;6.080;2023-06-22T07:19:42;102010.56;;;19.83;99.09
76434;BME280;65265;53.200;6.080;2023-06-22T07:24:34;102002.19;;;19.96;96.59
76434;BME280;65265;53.200;6.080;2023-06-22T07:29:26;102001.03;;;20.25;93.69
76434;BME280;65265;53.200;6.080;2023-06-22T07:34:17;101989.50;;;20.57;92.36
76434;BME280;65265;53.200;6.080;2023-06-22T07:39:11;101988.16;;;20.79;89.85
76434;BME280;65265;53.200;6.080;2023-06-22T07:44:02;101985.94;;;21.00;85.63
76434;BME280;65265;53.200;6.080;2023-06-22T07:48:54;101980.09;;;21.16;83.13
76434;BME280;65265;53.200;6.080;2023-06-22T07:53:45;101977.03;;;21.42;87.64
76434;BME280;65265;53.200;6.080;2023-06-22T07:58:39;101978.09;;;21.59;85.61
76434;BME280;65265;53.200;6.080;2023-06-22T08:03:30;101972.16;;;21.66;84.94
76434;BME280;65265;53.200;6.080;2023-06-22T08:08:22;101967.13;;;21.81;84.18
76434;BME280;65265;53.200;6.080;2023-06-22T08:13:13;101968.38;;;22.13;84.44
76434;BME280;65265;53.200;6.080;2023-06-22T08:18:06;101974.53;;;22.19;84.57
76434;BME280;65265;53.200;6.080;2023-06-22T08:22:57;101964.94;;;22.15;82.60
76434;BME280;65265;53.200;6.080;2023-06-22T08:27:55;101965.78;;;22.16;82.15
76434;BME280;65265;53.200;6.080;2023-06-22T08:32:46;101969.44;;;22.30;81.39
76434;BME280;65265;53.200;6.080;2023-06-22T08:37:40;101970.50;;;22.47;81.98
76434;BME280;65265;53.200;6.080;2023-06-22T08:42:31;101970.69;;;22.68;80.79
76434;BME280;65265;53.200;6.080;2023-06-22T08:47:23;101966.19;;;22.53;80.30
76434;BME280;65265;53.200;6.080;2023-06-22T08:52:14;101967.22;;;22.69;80.16
76434;BME280;65265;53.200;6.080;2023-06-22T08:57:07;101972.69;;;23.02;78.69
76434;BME280;65265;53.200;6.080;2023-06-22T09:01:58;101955.47;;;23.22;76.15
76434;BME280;65265;53.200;6.080;2023-06-22T09:06:50;101945.97;;;23.34;74.29
76434;BME280;65265;53.200;6.080;2023-06-22T09:11:42;101937.44;;;23.76;72.25
76434;BME280;65265;53.200;6.080;2023-06-22T09:16:35;101945.44;;;24.13;70.56
76434;BME280;65265;53.200;6.080;2023-06-22T09:21:26;101941.09;;;24.44;68.89
76434;BME280;65265;53.200;6.080;2023-06-22T09:26:18;101930.66;;;24.84;69.31
76434;BME280;65265;53.200;6.080;2023-06-22T09:31:09;101923.69;;;24.80;63.30
76434;BME280;65265;53.200;6.080;2023-06-22T09:36:02;101921.84;;;25.40;64.18
76434;BME280;65265;53.200;6.080;2023-06-22T09:40:55;101915.66;;;25.58;64.65
76434;BME280;65265;53.200;6.080;2023-06-22T09:45:46;101910.25;;;25.95;61.97
76434;BME280;65265;53.200;6.080;2023-06-22T09:50:38;101915.25;;;26.27;60.68
76434;BME280;65265;53.200;6.080;2023-06-22T09:55:31;101916.59;;;26.80;60.13
76434;BME280;65265;53.200;6.080;2023-06-22T10:00:22;101916.78;;;26.61;59.50
76434;BME280;65265;53.200;6.080;2023-06-22T10:05:14;101909.78;;;26.61;56.76
76434;BME280;65265;53.200;6.080;2023-06-22T10:10:06;101916.47;;;26.92;57.17
76434;BME280;65265;53.200;6.080;2023-06-22T10:14:59;101906.28;;;27.43;53.16
76434;BME280;65265;53.200;6.080;2023-06-22T10:19:51;101898.94;;;27.68;54.06
76434;BME280;65265;53.200;6.080;2023-06-22T10:24:42;101892.22;;;27.48;52.06
76434;BME280;65265;53.200;6.080;2023-06-22T10:29:34;101881.88;;;27.34;52.13
76434;BME280;65265;53.200;6.080;2023-06-22T10:34:27;101878.66;;;27.79;52.20
76434;BME280;65265;53.200;6.080;2023-06-22T10:39:19;101876.28;;;27.59;51.21
76434;BME280;65265;53.200;6.080;2023-06-22T10:44:11;101880.66;;;27.62;49.56
76434;BME280;65265;53.200;6.080;2023-06-22T10:49:03;101878.28;;;28.04;50.97
76434;BME280;65265;53.200;6.080;2023-06-22T10:53:56;101875.25;;;27.74;53.96
76434;BME280;65265;53.200;6.080;2023-06-22T10:58:47;101866.19;;;27.28;53.72
76434;BME280;65265;53.200;6.080;2023-06-22T11:03:39;101862.50;;;27.42;53.95
76434;BME280;65265;53.200;6.080;2023-06-22T11:08:30;101865.31;;;27.92;52.70
76434;BME280;65265;53.200;6.080;2023-06-22T11:13:23;101855.44;;;28.08;52.95
76434;BME280;65265;53.200;6.080;2023-06-22T11:18:15;101860.72;;;28.08;51.74
76434;BME280;65265;53.200;6.080;2023-06-22T11:23:06;101861.66;;;28.02;52.93
76434;BME280;65265;53.200;6.080;2023-06-22T11:27:58;101866.66;;;27.58;53.83
76434;BME280;65265;53.200;6.080;2023-06-22T11:32:51;101861.34;;;27.63;53.59
76434;BME280;65265;53.200;6.080;2023-06-22T11:37:42;101860.06;;;27.26;55.23
76434;BME280;65265;53.200;6.080;2023-06-22T11:42:34;101862.28;;;26.82;57.63
76434;BME280;65265;53.200;6.080;2023-06-22T11:47:25;101857.81;;;26.93;56.69
76434;BME280;65265;53.200;6.080;2023-06-22T11:52:18;101856.75;;;27.12;56.63
76434;BME280;65265;53.200;6.080;2023-06-22T11:57:10;101859.38;;;27.11;56.70
76434;BME280;65265;53.200;6.080;2023-06-22T12:02:02;101847.44;;;26.83;54.95
76434;BME280;65265;53.200;6.080;2023-06-22T12:06:54;101850.34;;;26.56;55.89
76434;BME280;65265;53.200;6.080;2023-06-22T12:11:47;101847.00;;;26.34;57.01
76434;BME280;65265;53.200;6.080;2023-06-22T12:16:38;101847.44;;;25.74;57.75
76434;BME280;65265;53.200;6.080;2023-06-22T12:21:30;101849.31;;;25.45;60.80
76434;BME280;65265;53.200;6.080;2023-06-22T12:26:21;101835.41;;;25.34;60.39
76434;BME280;65265;53.200;6.080;2023-06-22T12:31:14;101831.13;;;25.11;62.08
76434;BME280;65265;53.200;6.080;2023-06-22T12:36:06;101816.28;;;25.13;62.42
76434;BME280;65265;53.200;6.080;2023-06-22T12:40:58;101818.13;;;24.88;62.44
76434;BME280;65265;53.200;6.080;2023-06-22T12:45:49;101811.13;;;24.86;62.58
76434;BME280;65265;53.200;6.080;2023-06-22T12:50:42;101820.78;;;24.54;63.18
76434;BME280;65265;53.200;6.080;2023-06-22T12:55:34;101818.13;;;24.75;61.24
76434;BME280;65265;53.200;6.080;2023-06-22T13:00:25;101812.91;;;24.72;62.19
76434;BME280;65265;53.200;6.080;2023-06-22T13:05:17;101814.66;;;24.69;62.62
76434;BME280;65265;53.200;6.080;2023-06-22T13:10:10;101819.06;;;24.59;60.90
76434;BME280;65265;53.200;6.080;2023-06-22T13:15:02;101813.81;;;24.46;60.84
76434;BME280;65265;53.200;6.080;2023-06-22T13:19:53;101813.81;;;24.43;62.03
76434;BME280;65265;53.200;6.080;2023-06-22T13:24:45;101812.94;;;24.26;61.74
76434;BME280;65265;53.200;6.080;2023-06-22T13:29:38;101810.31;;;24.42;59.94
76434;BME280;65265;53.200;6.080;2023-06-22T13:34:29;101812.06;;;24.31;60.71
76434;BME280;65265;53.200;6.080;2023-06-22T13:39:20;101808.63;;;24.11;62.55
76434;BME280;65265;53.200;6.080;2023-06-22T13:44:13;101809.41;;;23.70;61.61
76434;BME280;65265;53.200;6.080;2023-06-22T13:49:05;101819.00;;;23.74;60.39
76434;BME280;65265;53.200;6.080;2023-06-22T13:53:57;101813.66;;;23.35;59.10
76434;BME280;65265;53.200;6.080;2023-06-22T13:58:48;101807.56;;;23.30;60.50
76434;BME280;65265;53.200;6.080;2023-06-22T14:03:40;101807.41;;;23.03;63.10
76434;BME280;65265;53.200;6.080;2023-06-22T14:08:33;101803.06;;;23.02;62.36
76434;BME280;65265;53.200;6.080;2023-06-22T14:13:24;101791.78;;;23.04;62.96
76434;BME280;65265;53.200;6.080;2023-06-22T14:18:15;101789.97;;;22.87;63.10
76434;BME280;65265;53.200;6.080;2023-06-22T14:23:07;101784.66;;;22.70;62.82
76434;BME280;65265;53.200;6.080;2023-06-22T14:28:00;101779.47;;;22.75;64.01
76434;BME280;65265;53.200;6.080;2023-06-22T14:32:52;101775.09;;;22.66;65.27
76434;BME280;65265;53.200;6.080;2023-06-22T14:37:43;101765.50;;;22.64;64.94
76434;BME280;65265;53.200;6.080;2023-06-22T14:42:35;101762.91;;;22.64;62.98
76434;BME280;65265;53.200;6.080;2023-06-22T14:47:28;101761.13;;;22.55;62.44
76434;BME280;65265;53.200;6.080;2023-06-22T14:52:19;101749.66;;;22.38;61.55
76434;BME280;65265;53.200;6.080;2023-06-22T14:57:11;101747.03;;;22.34;62.54
76434;BME280;65265;53.200;6.080;2023-06-22T15:02:03;101738.44;;;22.41;64.22
76434;BME280;65265;53.200;6.080;2023-06-22T15:06:56;101734.09;;;22.40;59.84
76434;BME280;65265;53.200;6.080;2023-06-22T15:11:48;101720.94;;;22.32;60.70
76434;BME280;65265;53.200;6.080;2023-06-22T15:16:39;101720.00;;;22.21;62.53
76434;BME280;65265;53.200;6.080;2023-06-22T15:21:31;101707.00;;;22.23;62.94
76434;BME280;65265;53.200;6.080;2023-06-22T15:26:24;101713.13;;;22.31;64.24
76434;BME280;65265;53.200;6.080;2023-06-22T15:31:16;101706.13;;;22.22;63.43
76434;BME280;65265;53.200;6.080;2023-06-22T15:36:08;101705.34;;;22.38;62.66
76434;BME280;65265;53.200;6.080;2023-06-22T15:40:59;101682.69;;;22.27;62.88
76434;BME280;65265;53.200;6.080;2023-06-22T15:45:53;101693.97;;;22.23;60.14
76434;BME280;65265;53.200;6.080;2023-06-22T15:50:45;101690.34;;;22.03;61.42
76434;BME280;65265;53.200;6.080;2023-06-22T15:55:36;101681.56;;;21.88;64.53
76434;BME280;65265;53.200;6.080;2023-06-22T16:00:27;101678.88;;;21.77;62.45
76434;BME280;65265;53.200;6.080;2023-06-22T16:05:20;101676.22;;;21.68;63.46
76434;BME280;65265;53.200;6.080;2023-06-22T16:10:12;101664.97;;;21.72;63.72
76434;BME280;65265;53.200;6.080;2023-06-22T16:15:06;101661.53;;;21.76;62.49
76434;BME280;65265;53.200;6.080;2023-06-22T16:19:58;101658.56;;;21.39;63.95
76434;BME280;65265;53.200;6.080;2023-06-22T16:24:51;101659.41;;;21.35;63.39
76434;BME280;65265;53.200;6.080;2023-06-22T16:29:43;101653.31;;;21.31;65.30
76434;BME280;65265;53.200;6.080;2023-06-22T16:34:34;101659.19;;;21.12;66.87
76434;BME280;65265;53.200;6.080;2023-06-22T16:39:26;101661.72;;;21.08;66.70
76434;BME280;65265;53.200;6.080;2023-06-22T16:44:19;101664.28;;;21.02;68.66
76434;BME280;65265;53.200;6.080;2023-06-22T16:49:11;101678.16;;;21.02;69.12
76434;BME280;65265;53.200;6.080;2023-06-22T16:54:03;101675.50;;;20.98;68.82
76434;BME280;65265;53.200;6.080;2023-06-22T16:58:56;101678.16;;;21.02;70.38
76434;BME280;65265;53.200;6.080;2023-06-22T17:03:55;101672.66;;;20.78;70.43
76434;BME280;65265;53.200;6.080;2023-06-22T17:08:48;101675.22;;;20.75;72.15
76434;BME280;65265;53.200;6.080;2023-06-22T17:13:40;101666.41;;;20.61;71.14
76434;BME280;65265;53.200;6.080;2023-06-22T17:18:32;101666.41;;;20.66;71.03
76434;BME280;65265;53.200;6.080;2023-06-22T17:23:27;101667.16;;;20.54;72.37
76434;BME280;65265;53.200;6.080;2023-06-22T17:28:18;101663.63;;;20.48;72.65
76434;BME280;65265;53.200;6.080;2023-06-22T17:33:14;101678.31;;;20.47;73.35
76434;BME280;65265;53.200;6.080;2023-06-22T17:38:09;101672.28;;;20.47;74.23
76434;BME280;65265;53.200;6.080;2023-06-22T17:43:10;101689.41;;;20.33;75.00
76434;BME280;65265;53.200;6.080;2023-06-22T17:48:01;101697.94;;;20.24;75.35
76434;BME280;65265;53.200;6.080;2023-06-22T17:52:54;101699.78;;;20.31;75.81
76434;BME280;65265;53.200;6.080;2023-06-22T17:57:45;101704.88;;;20.25;75.69
76434;BME280;65265;53.200;6.080;2023-06-22T18:02:42;101709.97;;;20.16;75.41
76434;BME280;65265;53.200;6.080;2023-06-22T18:07:34;101725.50;;;20.15;76.71
76434;BME280;65265;53.200;6.080;2023-06-22T18:12:27;101730.53;;;20.03;75.85
76434;BME280;65265;53.200;6.080;2023-06-22T18:17:20;101729.31;;;19.84;76.34
76434;BME280;65265;53.200;6.080;2023-06-22T18:22:13;101734.25;;;19.68;76.28
76434;BME280;65265;53.200;6.080;2023-06-22T18:27:06;101734.06;;;19.60;76.66
76434;BME280;65265;53.200;6.080;2023-06-22T18:31:57;101755.69;;;19.59;76.73
76434;BME280;65265;53.200;6.080;2023-06-22T18:36:51;101759.13;;;19.58;76.96
76434;BME280;65265;53.200;6.080;2023-06-22T18:41:50;101760.75;;;19.52;76.66
76434;BME280;65265;53.200;6.080;2023-06-22T18:46:42;101758.25;;;19.56;77.33
76434;BME280;65265;53.200;6.080;2023-06-22T18:51:48;101762.50;;;19.53;77.37
76434;BME280;65265;53.200;6.080;2023-06-22T18:56:53;101759.00;;;19.51;78.38
76434;BME280;65265;53.200;6.080;2023-06-22T19:01:44;101759.72;;;19.43;79.77
76434;BME280;65265;53.200;6.080;2023-06-22T19:06:54;101759.81;;;19.48;79.23
76434;BME280;65265;53.200;6.080;2023-06-22T19:11:47;101748.34;;;19.36;79.90
76434;BME280;65265;53.200;6.080;2023-06-22T19:16:40;101747.47;;;19.36;80.32
76434;BME280;65265;53.200;6.080;2023-06-22T19:21:31;101727.56;;;19.35;80.27
76434;BME280;65265;53.200;6.080;2023-06-22T19:26:23;101728.41;;;19.34;80.42
76434;BME280;65265;53.200;6.080;2023-06-22T19:31:16;101725.84;;;19.35;80.09
76434;BME280;65265;53.200;6.080;2023-06-22T19:36:09;101718.00;;;19.31;80.49
76434;BME280;65265;53.200;6.080;2023-06-22T19:41:01;101718.81;;;19.28;80.96
76434;BME280;65265;53.200;6.080;2023-06-22T19:45:52;101726.41;;;19.18;81.33
76434;BME280;65265;53.200;6.080;2023-06-22T19:50:44;101721.03;;;19.12;82.11
76434;BME280;65265;53.200;6.080;2023-06-22T19:55:38;101728.72;;;19.07;82.29
76434;BME280;65265;53.200;6.080;2023-06-22T20:00:32;101728.63;;;19.01;82.78
76434;BME280;65265;53.200;6.080;2023-06-22T20:05:24;101731.09;;;18.95;83.70
76434;BME280;65265;53.200;6.080;2023-06-22T20:10:18;101736.19;;;18.91;84.28
76434;BME280;65265;53.200;6.080;2023-06-22T20:15:29;101731.75;;;18.85;84.48
76434;BME280;65265;53.200;6.080;2023-06-22T20:20:22;101754.28;;;18.88;84.46
76434;BME280;65265;53.200;6.080;2023-06-22T20:25:21;101759.31;;;18.82;84.10
76434;BME280;65265;53.200;6.080;2023-06-22T20:30:15;101761.84;;;18.79;84.64
76434;BME280;65265;53.200;6.080;2023-06-22T20:35:09;101760.94;;;18.77;83.53
76434;BME280;65265;53.200;6.080;2023-06-22T20:40:00;101757.34;;;18.70;82.48
76434;BME280;65265;53.200;6.080;2023-06-22T20:44:55;101760.00;;;18.72;81.36
76434;BME280;65265;53.200;6.080;2023-06-22T20:49:46;101754.66;;;18.66;82.17
76434;BME280;65265;53.200;6.080;2023-06-22T20:54:40;101757.19;;;18.64;83.42
76434;BME280;65265;53.200;6.080;2023-06-22T20:59:32;101757.19;;;18.63;83.64
76434;BME280;65265;53.200;6.080;2023-06-22T21:04:23;101758.78;;;18.58;83.96
76434;BME280;65265;53.200;6.080;2023-06-22T21:09:15;101761.44;;;18.59;84.07
76434;BME280;65265;53.200;6.080;2023-06-22T21:14:07;101763.00;;;18.53;84.76
76434;BME280;65265;53.200;6.080;2023-06-22T21:18:59;101756.94;;;18.52;85.15
76434;BME280;65265;53.200;6.080;2023-06-22T21:23:51;101749.16;;;18.51;83.88
76434;BME280;65265;53.200;6.080;2023-06-22T21:28:42;101755.94;;;18.46;84.02
76434;BME280;65265;53.200;6.080;2023-06-22T21:33:35;101741.28;;;18.46;83.17
76434;BME280;65265;53.200;6.080;2023-06-22T21:38:26;101736.69;;;18.35;83.64
76434;BME280;65265;53.200;6.080;2023-06-22T21:43:18;101736.84;;;18.41;83.21
76434;BME280;65265;53.200;6.080;2023-06-22T21:48:09;101742.88;;;18.41;82.88
76434;BME280;65265;53.200;6.080;2023-06-22T21:53:02;101743.72;;;18.39;83.51
76434;BME280;65265;53.200;6.080;2023-06-22T21:57:54;101753.25;;;18.41;84.00
76434;BME280;65265;53.200;6.080;2023-06-22T22:02:45;101763.59;;;18.40;84.87
76434;BME280;65265;53.200;6.080;2023-06-22T22:07:36;101782.56;;;18.40;84.92
76434;BME280;65265;53.200;6.080;2023-06-22T22:12:29;101795.50;;;18.39;85.95
76434;BME280;65265;53.200;6.080;2023-06-22T22:17:21;101798.84;;;18.35;86.08
76434;BME280;65265;53.200;6.080;2023-06-22T22:22:12;101790.09;;;18.30;87.13
76434;BME280;65265;53.200;6.080;2023-06-22T22:27:04;101810.00;;;18.32;87.96
76434;BME280;65265;53.200;6.080;2023-06-22T22:31:57;101814.13;;;18.26;89.36
76434;BME280;65265;53.200;6.080;2023-06-22T22:36:49;101799.41;;;18.23;90.22
76434;BME280;65265;53.200;6.080;2023-06-22T22:41:41;101789.97;;;18.25;89.93
76434;BME280;65265;53.200;6.080;2023-06-22T22:46:33;101797.72;;;18.25;90.77
76434;BME280;65265;53.200;6.080;2023-06-22T22:51:26;101802.91;;;18.25;91.01
76434;BME280;65265;53.200;6.080;2023-06-22T22:56:17;101791.53;;;18.19;91.72
76434;BME280;65265;53.200;6.080;2023-06-22T23:01:08;101791.50;;;18.17;92.71
76434;BME280;65265;53.200;6.080;2023-06-22T23:06:00;101789.69;;;18.15;93.12
76434;BME280;65265;53.200;6.080;2023-06-22T23:10:53;101795.47;;;18.05;94.15
76434;BME280;65265;53.200;6.080;2023-06-22T23:15:45;101801.44;;;18.01;94.40
76434;BME280;65265;53.200;6.080;2023-06-22T23:20:36;101809.88;;;17.94;94.72
76434;BME280;65265;53.200;6.080;2023-06-22T23:25:28;101809.88;;;17.94;95.14
76434;BME280;65265;53.200;6.080;2023-06-22T23:30:22;101814.25;;;17.95;95.09
76434;BME280;65265;53.200;6.080;2023-06-22T23:35:16;101814.13;;;17.92;95.63
76434;BME280;65265;53.200;6.080;2023-06-22T23:40:08;101820.97;;;17.88;95.81
76434;BME280;65265;53.200;6.080;2023-06-22T23:45:07;101815.75;;;17.87;96.06
76434;BME280;65265;53.200;6.080;2023-06-22T23:50:00;101808.88;;;17.89;96.11
76434;BME280;65265;53.200;6.080;2023-06-22T23:54:52;101819.97;;;17.83;97.21
76434;BME280;65265;53.200;6.080;2023-06-22T23:59:44;101826.69;;;17.77;97.35
